Terminal Aerodrome Forecast
Issued by NWS Omaha/Valley, NE

Home | Current Version | Previous Version | Text Only | Print | Product List | Glossary On
Versions: 1 2 3 4 5 6 7 8 9 10 11 12 13 14 15 16 17 18 19 20 21 22 23 24 25 26 27 28 29 30 31 32 33 34 35 36 37 38 39 40 41 42 43 44 45
000
FTUS43 KOAX 212130 AAB
TAFOFK
TAF AMD
KOFK 212130Z 2122/2218 18014KT 4SM BR OVC005
      TEMPO 2122/2124 2SM BR OVC002
     FM220000 18015G23KT 5SM BR OVC005
      TEMPO 2200/2203 3SM -RA BR OVC004
     FM220600 22014G20KT 4SM -RA BR OVC005
     FM221300 22007KT 3SM -RA BR OVC007=

USA.gov is the U.S. government's official web portal to all federal, state and local government web resources and services.